sensor_id;sensor_type;location;lat;lon;timestamp;pressure;altitude;pressure_sealevel;temperature;humidity
78483;BME280;67772;50.158;8.658;2023-04-02T00:02:34;99543.59;;;10.78;75.71
78483;BME280;67772;50.158;8.658;2023-04-02T00:07:41;99546.53;;;10.82;75.80
78483;BME280;67772;50.158;8.658;2023-04-02T00:10:34;99558.00;;;10.72;75.50
78483;BME280;67772;50.158;8.658;2023-04-02T00:13:22;99559.63;;;10.98;74.17
78483;BME280;67772;50.158;8.658;2023-04-02T00:15:48;99556.97;;;10.98;74.05
78483;BME280;67772;50.158;8.658;2023-04-02T00:18:21;99566.28;;;10.91;74.20
78483;BME280;67772;50.158;8.658;2023-04-02T00:20:51;99570.28;;;10.78;74.47
78483;BME280;67772;50.158;8.658;2023-04-02T00:23:18;99572.94;;;10.78;75.24
78483;BME280;67772;50.158;8.658;2023-04-02T00:25:44;99571.59;;;10.71;74.84
78483;BME280;67772;50.158;8.658;2023-04-02T00:28:15;99577.19;;;10.74;74.80
78483;BME280;67772;50.158;8.658;2023-04-02T00:30:49;99578.81;;;10.85;74.09
78483;BME280;67772;50.158;8.658;2023-04-02T00:33:18;99587.28;;;10.67;75.74
78483;BME280;67772;50.158;8.658;2023-04-02T00:35:43;99582.00;;;10.77;74.66
78483;BME280;67772;50.158;8.658;2023-04-02T00:38:18;99593.47;;;10.78;74.90
78483;BME280;67772;50.158;8.658;2023-04-02T00:40:45;99588.16;;;10.88;74.60
78483;BME280;67772;50.158;8.658;2023-04-02T00:43:12;99583.88;;;10.77;75.21
78483;BME280;67772;50.158;8.658;2023-04-02T00:45:42;99592.41;;;10.68;75.77
78483;BME280;67772;50.158;8.658;2023-04-02T00:50:57;99595.31;;;10.77;75.86
78483;BME280;67772;50.158;8.658;2023-04-02T00:53:27;99596.94;;;10.83;75.08
78483;BME280;67772;50.158;8.658;2023-04-02T00:55:55;99591.84;;;10.72;75.11
78483;BME280;67772;50.158;8.658;2023-04-02T00:58:27;99596.94;;;10.78;75.54
78483;BME280;67772;50.158;8.658;2023-04-02T01:00:54;99598.28;;;10.86;75.51
78483;BME280;67772;50.158;8.658;2023-04-02T01:06:14;99601.16;;;10.64;75.76
78483;BME280;67772;50.158;8.658;2023-04-02T01:24:30;99618.56;;;10.77;74.93
78483;BME280;67772;50.158;8.658;2023-04-02T01:29:52;99619.31;;;10.62;75.35
78483;BME280;67772;50.158;8.658;2023-04-02T01:32:21;99622.50;;;10.64;75.43
78483;BME280;67772;50.158;8.658;2023-04-02T01:34:48;99626.25;;;10.68;74.92
78483;BME280;67772;50.158;8.658;2023-04-02T01:37:49;99626.00;;;10.69;74.40
78483;BME280;67772;50.158;8.658;2023-04-02T01:45:20;99643.34;;;10.72;75.21
78483;BME280;67772;50.158;8.658;2023-04-02T01:47:47;99648.91;;;10.60;75.11
78483;BME280;67772;50.158;8.658;2023-04-02T01:52:46;99657.72;;;10.71;75.56
78483;BME280;67772;50.158;8.658;2023-04-02T01:55:14;99656.38;;;10.58;75.71
78483;BME280;67772;50.158;8.658;2023-04-02T01:57:44;99656.09;;;10.55;75.60
78483;BME280;67772;50.158;8.658;2023-04-02T02:00:15;99658.94;;;10.38;76.74
78483;BME280;67772;50.158;8.658;2023-04-02T02:02:41;99667.31;;;10.67;75.51
78483;BME280;67772;50.158;8.658;2023-04-02T02:05:16;99670.25;;;10.65;75.92
78483;BME280;67772;50.158;8.658;2023-04-02T02:07:43;99668.94;;;10.68;75.24
78483;BME280;67772;50.158;8.658;2023-04-02T02:10:21;99672.66;;;10.67;75.78
78483;BME280;67772;50.158;8.658;2023-04-02T02:12:47;99678.25;;;10.65;75.29
78483;BME280;67772;50.158;8.658;2023-04-02T02:15:18;99682.50;;;10.56;76.34
78483;BME280;67772;50.158;8.658;2023-04-02T02:17:45;99678.78;;;10.67;75.50
78483;BME280;67772;50.158;8.658;2023-04-02T02:20:11;99678.25;;;10.60;76.02
78483;BME280;67772;50.158;8.658;2023-04-02T02:22:48;99678.50;;;10.64;76.21
78483;BME280;67772;50.158;8.658;2023-04-02T02:25:26;99686.25;;;10.60;76.31
78483;BME280;67772;50.158;8.658;2023-04-02T02:28:01;99683.47;;;10.40;76.88
78483;BME280;67772;50.158;8.658;2023-04-02T02:35:46;99701.09;;;10.46;76.82
78483;BME280;67772;50.158;8.658;2023-04-02T02:38:31;99697.91;;;10.49;76.99
78483;BME280;67772;50.158;8.658;2023-04-02T02:41:38;99696.84;;;10.45;77.44
78483;BME280;67772;50.158;8.658;2023-04-02T02:46:36;99706.31;;;10.26;77.75
78483;BME280;67772;50.158;8.658;2023-04-02T02:49:03;99708.75;;;10.33;77.88
78483;BME280;67772;50.158;8.658;2023-04-02T02:51:43;99706.97;;;10.43;77.17
78483;BME280;67772;50.158;8.658;2023-04-02T02:54:12;99721.38;;;10.47;77.01
78483;BME280;67772;50.158;8.658;2023-04-02T02:56:41;99718.50;;;10.59;76.39
78483;BME280;67772;50.158;8.658;2023-04-02T02:59:10;99724.06;;;10.52;76.60
78483;BME280;67772;50.158;8.658;2023-04-02T03:01:40;99726.44;;;10.49;76.76
78483;BME280;67772;50.158;8.658;2023-04-02T03:04:06;99728.56;;;10.47;76.79
78483;BME280;67772;50.158;8.658;2023-04-02T03:06:31;99738.22;;;10.58;75.92
78483;BME280;67772;50.158;8.658;2023-04-02T03:12:12;99741.66;;;10.53;76.37
78483;BME280;67772;50.158;8.658;2023-04-02T03:14:53;99746.41;;;10.41;76.99
78483;BME280;67772;50.158;8.658;2023-04-02T03:24:57;99766.16;;;10.45;76.88
78483;BME280;67772;50.158;8.658;2023-04-02T03:27:29;99769.81;;;10.34;77.74
78483;BME280;67772;50.158;8.658;2023-04-02T03:30:03;99776.22;;;10.38;77.02
78483;BME280;67772;50.158;8.658;2023-04-02T03:32:34;99783.47;;;10.43;76.98
78483;BME280;67772;50.158;8.658;2023-04-02T03:35:13;99782.59;;;10.79;75.73
78483;BME280;67772;50.158;8.658;2023-04-02T03:37:49;99783.28;;;10.54;76.08
78483;BME280;67772;50.158;8.658;2023-04-02T03:40:47;99787.50;;;10.45;77.12
78483;BME280;67772;50.158;8.658;2023-04-02T03:43:23;99791.50;;;10.48;76.93
78483;BME280;67772;50.158;8.658;2023-04-02T03:46:11;99799.00;;;10.56;76.75
78483;BME280;67772;50.158;8.658;2023-04-02T03:48:46;99797.69;;;10.58;76.40
78483;BME280;67772;50.158;8.658;2023-04-02T03:51:19;99804.56;;;10.49;76.60
78483;BME280;67772;50.158;8.658;2023-04-02T03:53:48;99809.03;;;10.39;77.17
78483;BME280;67772;50.158;8.658;2023-04-02T03:56:25;99810.13;;;10.43;77.01
78483;BME280;67772;50.158;8.658;2023-04-02T04:01:59;99814.88;;;10.36;77.24
78483;BME280;67772;50.158;8.658;2023-04-02T04:04:28;99820.81;;;10.43;77.13
78483;BME280;67772;50.158;8.658;2023-04-02T04:06:56;99826.41;;;10.41;77.45
78483;BME280;67772;50.158;8.658;2023-04-02T04:09:28;99828.03;;;10.47;76.90
78483;BME280;67772;50.158;8.658;2023-04-02T04:12:14;99830.19;;;10.50;76.68
78483;BME280;67772;50.158;8.658;2023-04-02T04:14:51;99837.59;;;10.43;76.67
78483;BME280;67772;50.158;8.658;2023-04-02T04:17:25;99836.28;;;10.46;76.86
78483;BME280;67772;50.158;8.658;2023-04-02T04:20:12;99848.84;;;10.50;76.99
78483;BME280;67772;50.158;8.658;2023-04-02T04:22:39;99851.44;;;10.40;77.21
78483;BME280;67772;50.158;8.658;2023-04-02T04:25:15;99849.22;;;10.32;77.46
78483;BME280;67772;50.158;8.658;2023-04-02T04:30:56;99858.34;;;10.36;77.49
78483;BME280;67772;50.158;8.658;2023-04-02T04:33:29;99862.06;;;10.35;78.10
78483;BME280;67772;50.158;8.658;2023-04-02T04:36:04;99863.94;;;10.40;77.56
78483;BME280;67772;50.158;8.658;2023-04-02T04:38:36;99864.72;;;10.35;77.31
78483;BME280;67772;50.158;8.658;2023-04-02T04:41:20;99865.28;;;10.37;77.61
78483;BME280;67772;50.158;8.658;2023-04-02T04:44:17;99874.41;;;10.46;76.57
78483;BME280;67772;50.158;8.658;2023-04-02T04:46:44;99876.78;;;10.43;77.36
78483;BME280;67772;50.158;8.658;2023-04-02T04:51:56;99886.47;;;10.54;76.94
78483;BME280;67772;50.158;8.658;2023-04-02T04:54:25;99889.59;;;10.46;77.50
78483;BME280;67772;50.158;8.658;2023-04-02T04:56:56;99895.22;;;10.49;77.57
78483;BME280;67772;50.158;8.658;2023-04-02T04:59:46;99902.72;;;10.52;76.82
78483;BME280;67772;50.158;8.658;2023-04-02T05:02:27;99911.38;;;10.38;77.42
78483;BME280;67772;50.158;8.658;2023-04-02T05:04:54;99910.63;;;10.42;77.01
78483;BME280;67772;50.158;8.658;2023-04-02T05:09:52;99919.84;;;10.56;76.85
78483;BME280;67772;50.158;8.658;2023-04-02T05:15:19;99929.88;;;10.49;76.91
78483;BME280;67772;50.158;8.658;2023-04-02T05:20:41;99933.06;;;10.46;77.72
78483;BME280;67772;50.158;8.658;2023-04-02T05:23:17;99940.03;;;10.47;77.65
78483;BME280;67772;50.158;8.658;2023-04-02T05:28:28;99948.25;;;10.46;78.67
78483;BME280;67772;50.158;8.658;2023-04-02T05:31:00;99950.22;;;10.55;79.12
78483;BME280;67772;50.158;8.658;2023-04-02T05:33:28;99949.72;;;10.58;79.00
78483;BME280;67772;50.158;8.658;2023-04-02T05:36:00;99960.28;;;10.48;79.17
78483;BME280;67772;50.158;8.658;2023-04-02T05:38:30;99955.25;;;10.52;79.03
78483;BME280;67772;50.158;8.658;2023-04-02T05:41:02;99962.75;;;10.55;79.65
78483;BME280;67772;50.158;8.658;2023-04-02T05:43:32;99970.78;;;10.60;79.31
78483;BME280;67772;50.158;8.658;2023-04-02T05:46:02;99966.22;;;10.55;79.21
78483;BME280;67772;50.158;8.658;2023-04-02T05:48:36;99968.94;;;10.60;79.36
78483;BME280;67772;50.158;8.658;2023-04-02T05:51:04;99978.25;;;10.58;78.59
78483;BME280;67772;50.158;8.658;2023-04-02T05:53:34;99982.31;;;10.65;79.09
78483;BME280;67772;50.158;8.658;2023-04-02T05:56:09;99988.19;;;10.67;78.67
78483;BME280;67772;50.158;8.658;2023-04-02T06:01:37;99992.53;;;10.74;79.47
78483;BME280;67772;50.158;8.658;2023-04-02T06:04:22;100003.00;;;10.80;78.57
78483;BME280;67772;50.158;8.658;2023-04-02T06:06:57;100009.91;;;10.76;78.38
78483;BME280;67772;50.158;8.658;2023-04-02T06:14:54;100031.22;;;10.76;75.71
78483;BME280;67772;50.158;8.658;2023-04-02T06:17:19;100042.22;;;10.53;76.10
78483;BME280;67772;50.158;8.658;2023-04-02T06:19:45;100049.88;;;10.49;75.59
78483;BME280;67772;50.158;8.658;2023-04-02T06:22:31;100056.06;;;10.28;75.14
78483;BME280;67772;50.158;8.658;2023-04-02T06:25:23;100059.59;;;10.12;76.19
78483;BME280;67772;50.158;8.658;2023-04-02T06:27:50;100064.91;;;10.12;75.76
78483;BME280;67772;50.158;8.658;2023-04-02T06:30:30;100068.06;;;10.09;75.86
78483;BME280;67772;50.158;8.658;2023-04-02T06:32:56;100079.13;;;10.01;73.87
78483;BME280;67772;50.158;8.658;2023-04-02T06:35:22;100081.75;;;9.96;74.78
78483;BME280;67772;50.158;8.658;2023-04-02T06:37:50;100084.88;;;9.93;74.83
78483;BME280;67772;50.158;8.658;2023-04-02T06:43:37;100102.91;;;9.86;73.27
78483;BME280;67772;50.158;8.658;2023-04-02T06:46:06;100105.03;;;9.67;74.45
78483;BME280;67772;50.158;8.658;2023-04-02T06:48:35;100112.09;;;9.57;75.62
78483;BME280;67772;50.158;8.658;2023-04-02T06:51:06;100120.84;;;9.57;74.55
78483;BME280;67772;50.158;8.658;2023-04-02T06:53:36;100135.31;;;9.45;75.27
78483;BME280;67772;50.158;8.658;2023-04-02T06:58:57;100144.25;;;9.39;75.86
78483;BME280;67772;50.158;8.658;2023-04-02T07:01:26;100147.16;;;9.37;75.92
78483;BME280;67772;50.158;8.658;2023-04-02T07:03:52;100162.16;;;9.60;75.86
78483;BME280;67772;50.158;8.658;2023-04-02T07:06:19;100163.00;;;9.60;75.52
78483;BME280;67772;50.158;8.658;2023-04-02T07:08:45;100172.34;;;9.63;75.71
78483;BME280;67772;50.158;8.658;2023-04-02T07:11:16;100175.03;;;9.63;74.37
78483;BME280;67772;50.158;8.658;2023-04-02T07:13:42;100178.47;;;9.63;74.67
78483;BME280;67772;50.158;8.658;2023-04-02T07:16:20;100183.91;;;9.68;73.85
78483;BME280;67772;50.158;8.658;2023-04-02T07:18:46;100194.88;;;9.72;73.59
78483;BME280;67772;50.158;8.658;2023-04-02T07:21:12;100197.22;;;9.68;73.65
78483;BME280;67772;50.158;8.658;2023-04-02T07:23:37;100204.06;;;9.64;73.80
78483;BME280;67772;50.158;8.658;2023-04-02T07:26:04;100208.97;;;9.56;73.51
78483;BME280;67772;50.158;8.658;2023-04-02T07:28:30;100212.88;;;9.65;73.53
78483;BME280;67772;50.158;8.658;2023-04-02T07:30:55;100218.34;;;9.58;72.78
78483;BME280;67772;50.158;8.658;2023-04-02T07:33:27;100225.75;;;9.56;73.54
78483;BME280;67772;50.158;8.658;2023-04-02T07:35:55;100237.22;;;9.73;73.22
78483;BME280;67772;50.158;8.658;2023-04-02T07:38:21;100240.16;;;9.72;73.21
78483;BME280;67772;50.158;8.658;2023-04-02T07:40:46;100253.38;;;9.67;72.95
78483;BME280;67772;50.158;8.658;2023-04-02T07:43:12;100244.00;;;9.81;71.92
78483;BME280;67772;50.158;8.658;2023-04-02T07:45:37;100252.00;;;9.64;72.30
78483;BME280;67772;50.158;8.658;2023-04-02T07:48:11;100265.28;;;9.48;71.81
78483;BME280;67772;50.158;8.658;2023-04-02T07:50:37;100268.19;;;9.46;73.40
78483;BME280;67772;50.158;8.658;2023-04-02T07:53:03;100282.03;;;9.32;73.53
78483;BME280;67772;50.158;8.658;2023-04-02T07:55:29;100273.28;;;9.20;73.13
78483;BME280;67772;50.158;8.658;2023-04-02T07:57:57;100289.38;;;9.13;73.27
78483;BME280;67772;50.158;8.658;2023-04-02T08:00:25;100296.16;;;9.21;72.60
78483;BME280;67772;50.158;8.658;2023-04-02T08:02:51;100302.44;;;9.15;72.25
78483;BME280;67772;50.158;8.658;2023-04-02T08:05:16;100303.41;;;9.37;72.17
78483;BME280;67772;50.158;8.658;2023-04-02T08:07:42;100316.28;;;9.56;70.02
78483;BME280;67772;50.158;8.658;2023-04-02T08:10:11;100322.53;;;9.34;72.24
78483;BME280;67772;50.158;8.658;2023-04-02T08:12:36;100312.34;;;9.31;72.66
78483;BME280;67772;50.158;8.658;2023-04-02T08:15:03;100330.81;;;9.49;71.04
78483;BME280;67772;50.158;8.658;2023-04-02T08:17:31;100336.59;;;9.46;71.36
78483;BME280;67772;50.158;8.658;2023-04-02T08:19:57;100337.69;;;9.33;72.97
78483;BME280;67772;50.158;8.658;2023-04-02T08:22:27;100334.22;;;9.33;71.97
78483;BME280;67772;50.158;8.658;2023-04-02T08:24:53;100354.59;;;9.27;71.54
78483;BME280;67772;50.158;8.658;2023-04-02T08:27:18;100349.59;;;9.31;71.52
78483;BME280;67772;50.158;8.658;2023-04-02T08:29:43;100367.88;;;9.39;71.40
78483;BME280;67772;50.158;8.658;2023-04-02T08:32:11;100365.75;;;9.52;70.64
78483;BME280;67772;50.158;8.658;2023-04-02T08:34:39;100368.00;;;9.32;70.97
78483;BME280;67772;50.158;8.658;2023-04-02T08:37:05;100373.69;;;9.36;70.32
78483;BME280;67772;50.158;8.658;2023-04-02T08:39:30;100382.41;;;9.48;71.03
78483;BME280;67772;50.158;8.658;2023-04-02T08:42:22;100386.50;;;9.78;68.09
78483;BME280;67772;50.158;8.658;2023-04-02T08:47:28;100390.25;;;9.66;70.30
78483;BME280;67772;50.158;8.658;2023-04-02T08:50:00;100401.78;;;10.11;67.96
78483;BME280;67772;50.158;8.658;2023-04-02T08:52:31;100404.97;;;10.25;68.68
78483;BME280;67772;50.158;8.658;2023-04-02T08:55:00;100405.06;;;10.46;66.44
78483;BME280;67772;50.158;8.658;2023-04-02T08:57:34;100419.53;;;10.50;67.46
78483;BME280;67772;50.158;8.658;2023-04-02T09:02:53;100424.47;;;10.58;67.10
78483;BME280;67772;50.158;8.658;2023-04-02T09:05:27;100437.13;;;10.35;67.17
78483;BME280;67772;50.158;8.658;2023-04-02T09:07:55;100437.97;;;10.68;65.12
78483;BME280;67772;50.158;8.658;2023-04-02T09:10:26;100439.22;;;10.49;65.70
78483;BME280;67772;50.158;8.658;2023-04-02T09:12:58;100457.03;;;10.60;63.97
78483;BME280;67772;50.158;8.658;2023-04-02T09:15:32;100455.97;;;10.45;65.28
78483;BME280;67772;50.158;8.658;2023-04-02T09:18:05;100452.63;;;10.21;66.30
78483;BME280;67772;50.158;8.658;2023-04-02T09:20:35;100459.59;;;10.39;64.43
78483;BME280;67772;50.158;8.658;2023-04-02T09:23:01;100469.25;;;10.28;65.56
78483;BME280;67772;50.158;8.658;2023-04-02T09:25:28;100474.16;;;10.48;64.91
78483;BME280;67772;50.158;8.658;2023-04-02T09:27:57;100479.72;;;10.46;65.71
78483;BME280;67772;50.158;8.658;2023-04-02T09:32:58;100491.63;;;10.55;64.39
78483;BME280;67772;50.158;8.658;2023-04-02T09:35:37;100492.06;;;10.81;64.14
78483;BME280;67772;50.158;8.658;2023-04-02T09:38:21;100499.47;;;10.45;64.89
78483;BME280;67772;50.158;8.658;2023-04-02T09:43:15;100507.66;;;10.89;64.22
78483;BME280;67772;50.158;8.658;2023-04-02T09:45:42;100517.03;;;10.91;64.01
78483;BME280;67772;50.158;8.658;2023-04-02T09:48:20;100522.00;;;10.83;62.94
78483;BME280;67772;50.158;8.658;2023-04-02T09:50:47;100519.78;;;10.80;62.33
78483;BME280;67772;50.158;8.658;2023-04-02T09:53:26;100528.53;;;10.92;62.58
78483;BME280;67772;50.158;8.658;2023-04-02T09:56:25;100534.59;;;10.87;62.38
78483;BME280;67772;50.158;8.658;2023-04-02T09:59:16;100538.88;;;11.05;62.12
78483;BME280;67772;50.158;8.658;2023-04-02T10:04:39;100537.00;;;11.55;62.17
78483;BME280;67772;50.158;8.658;2023-04-02T10:07:29;100542.78;;;11.85;59.14
78483;BME280;67772;50.158;8.658;2023-04-02T10:09:58;100550.03;;;11.68;58.46
78483;BME280;67772;50.158;8.658;2023-04-02T10:12:25;100555.84;;;12.03;58.39
78483;BME280;67772;50.158;8.658;2023-04-02T10:14:51;100555.84;;;11.65;58.88
78483;BME280;67772;50.158;8.658;2023-04-02T10:17:22;100562.34;;;11.69;57.69
78483;BME280;67772;50.158;8.658;2023-04-02T10:19:58;100566.22;;;11.78;59.03
78483;BME280;67772;50.158;8.658;2023-04-02T10:22:27;100583.94;;;11.84;58.95
78483;BME280;67772;50.158;8.658;2023-04-02T10:24:52;100572.53;;;11.55;59.91
78483;BME280;67772;50.158;8.658;2023-04-02T10:30:02;100583.25;;;11.72;55.64
78483;BME280;67772;50.158;8.658;2023-04-02T10:32:54;100588.78;;;11.04;58.14
78483;BME280;67772;50.158;8.658;2023-04-02T10:35:39;100607.81;;;11.24;59.28
78483;BME280;67772;50.158;8.658;2023-04-02T10:41:08;100614.63;;;11.32;57.09
78483;BME280;67772;50.158;8.658;2023-04-02T10:49:31;100626.56;;;10.68;58.81
78483;BME280;67772;50.158;8.658;2023-04-02T10:52:08;100615.31;;;10.26;60.58
78483;BME280;67772;50.158;8.658;2023-04-02T10:54:48;100630.13;;;10.45;60.72
78483;BME280;67772;50.158;8.658;2023-04-02T10:57:39;100630.31;;;10.55;59.57
78483;BME280;67772;50.158;8.658;2023-04-02T11:05:21;100647.75;;;11.03;58.46
78483;BME280;67772;50.158;8.658;2023-04-02T11:07:59;100640.94;;;11.40;57.54
78483;BME280;67772;50.158;8.658;2023-04-02T11:10:30;100647.50;;;11.49;56.31
78483;BME280;67772;50.158;8.658;2023-04-02T11:13:02;100656.13;;;11.84;56.45
78483;BME280;67772;50.158;8.658;2023-04-02T11:15:29;100655.34;;;12.05;57.36
78483;BME280;67772;50.158;8.658;2023-04-02T11:17:55;100663.06;;;11.85;56.74
78483;BME280;67772;50.158;8.658;2023-04-02T11:21:03;100664.50;;;11.43;57.13
78483;BME280;67772;50.158;8.658;2023-04-02T11:23:32;100671.94;;;11.41;57.40
78483;BME280;67772;50.158;8.658;2023-04-02T11:26:58;100666.34;;;11.42;57.88
78483;BME280;67772;50.158;8.658;2023-04-02T11:29:11;100688.63;;;11.48;57.15
78483;BME280;67772;50.158;8.658;2023-04-02T11:31:38;100688.56;;;11.15;58.53
78483;BME280;67772;50.158;8.658;2023-04-02T11:34:03;100692.94;;;11.21;58.49
78483;BME280;67772;50.158;8.658;2023-04-02T11:39:54;100695.03;;;11.47;57.32
78483;BME280;67772;50.158;8.658;2023-04-02T11:42:23;100709.97;;;11.76;55.80
78483;BME280;67772;50.158;8.658;2023-04-02T11:44:50;100701.13;;;12.09;56.04
78483;BME280;67772;50.158;8.658;2023-04-02T11:47:23;100708.84;;;11.44;56.21
78483;BME280;67772;50.158;8.658;2023-04-02T11:52:31;100722.66;;;11.69;55.26
78483;BME280;67772;50.158;8.658;2023-04-02T11:55:00;100732.31;;;11.42;56.15
78483;BME280;67772;50.158;8.658;2023-04-02T11:58:01;100739.56;;;11.30;56.61
78483;BME280;67772;50.158;8.658;2023-04-02T12:04:03;100734.91;;;10.81;58.26
78483;BME280;67772;50.158;8.658;2023-04-02T12:07:06;100742.03;;;10.92;58.44
78483;BME280;67772;50.158;8.658;2023-04-02T12:14:53;100752.25;;;10.95;56.93
78483;BME280;67772;50.158;8.658;2023-04-02T12:17:35;100763.66;;;10.79;56.86
78483;BME280;67772;50.158;8.658;2023-04-02T12:22:37;100771.06;;;10.88;58.09
78483;BME280;67772;50.158;8.658;2023-04-02T12:27:31;100779.97;;;11.05;54.72
78483;BME280;67772;50.158;8.658;2023-04-02T12:30:12;100773.13;;;10.98;56.04
78483;BME280;67772;50.158;8.658;2023-04-02T12:32:39;100781.84;;;10.93;56.33
78483;BME280;67772;50.158;8.658;2023-04-02T12:35:05;100780.84;;;10.83;56.77
78483;BME280;67772;50.158;8.658;2023-04-02T12:37:31;100790.59;;;10.65;56.88
78483;BME280;67772;50.158;8.658;2023-04-02T12:39:59;100791.63;;;10.64;57.90
78483;BME280;67772;50.158;8.658;2023-04-02T12:42:26;100785.41;;;10.47;58.14
78483;BME280;67772;50.158;8.658;2023-04-02T12:44:52;100800.91;;;10.62;56.64
78483;BME280;67772;50.158;8.658;2023-04-02T12:47:18;100805.19;;;10.28;58.31
78483;BME280;67772;50.158;8.658;2023-04-02T12:49:45;100810.66;;;10.33;57.61
78483;BME280;67772;50.158;8.658;2023-04-02T12:52:14;100817.59;;;10.11;58.09
78483;BME280;67772;50.158;8.658;2023-04-02T12:59:49;100826.22;;;9.65;61.64
78483;BME280;67772;50.158;8.658;2023-04-02T13:02:20;100828.69;;;9.67;60.75
78483;BME280;67772;50.158;8.658;2023-04-02T13:04:51;100827.50;;;9.93;59.08
78483;BME280;67772;50.158;8.658;2023-04-02T13:07:17;100832.00;;;9.92;59.86
78483;BME280;67772;50.158;8.658;2023-04-02T13:09:46;100837.13;;;10.05;58.72
78483;BME280;67772;50.158;8.658;2023-04-02T13:12:28;100838.84;;;10.00;59.93
78483;BME280;67772;50.158;8.658;2023-04-02T13:14:57;100840.47;;;10.01;59.46
78483;BME280;67772;50.158;8.658;2023-04-02T13:17:43;100848.69;;;9.99;59.09
78483;BME280;67772;50.158;8.658;2023-04-02T13:20:34;100840.03;;;10.04;59.07
78483;BME280;67772;50.158;8.658;2023-04-02T13:23:10;100851.25;;;9.94;59.71
78483;BME280;67772;50.158;8.658;2023-04-02T13:25:46;100856.22;;;9.91;59.28
78483;BME280;67772;50.158;8.658;2023-04-02T13:28:12;100848.50;;;10.12;58.78
78483;BME280;67772;50.158;8.658;2023-04-02T13:30:37;100858.09;;;10.02;59.39
78483;BME280;67772;50.158;8.658;2023-04-02T13:33:02;100857.75;;;9.98;58.09
78483;BME280;67772;50.158;8.658;2023-04-02T13:35:27;100859.34;;;9.99;58.10
78483;BME280;67772;50.158;8.658;2023-04-02T13:37:53;100863.72;;;9.82;58.75
78483;BME280;67772;50.158;8.658;2023-04-02T13:40:18;100871.56;;;9.77;59.41
78483;BME280;67772;50.158;8.658;2023-04-02T13:42:44;100870.16;;;9.45;59.79
78483;BME280;67772;50.158;8.658;2023-04-02T13:47:42;100872.25;;;9.72;60.21
78483;BME280;67772;50.158;8.658;2023-04-02T13:50:10;100879.66;;;9.70;59.69
78483;BME280;67772;50.158;8.658;2023-04-02T13:52:40;100869.63;;;9.84;59.75
78483;BME280;67772;50.158;8.658;2023-04-02T13:55:05;100875.31;;;9.88;58.68
78483;BME280;67772;50.158;8.658;2023-04-02T13:57:31;100883.81;;;9.96;58.01
78483;BME280;67772;50.158;8.658;2023-04-02T13:59:58;100887.84;;;9.99;57.52
78483;BME280;67772;50.158;8.658;2023-04-02T14:02:24;100889.56;;;10.11;56.21
78483;BME280;67772;50.158;8.658;2023-04-02T14:04:52;100904.97;;;9.91;57.12
78483;BME280;67772;50.158;8.658;2023-04-02T14:07:32;100890.72;;;10.15;57.68
78483;BME280;67772;50.158;8.658;2023-04-02T14:11:02;100906.41;;;10.35;56.99
78483;BME280;67772;50.158;8.658;2023-04-02T14:21:18;100929.19;;;9.90;57.35
78483;BME280;67772;50.158;8.658;2023-04-02T14:24:09;100934.28;;;9.91;56.94
78483;BME280;67772;50.158;8.658;2023-04-02T14:29:36;100928.81;;;9.86;57.19
78483;BME280;67772;50.158;8.658;2023-04-02T14:32:09;100941.84;;;9.94;57.18
78483;BME280;67772;50.158;8.658;2023-04-02T14:34:58;100938.91;;;9.66;57.28
78483;BME280;67772;50.158;8.658;2023-04-02T14:42:42;100942.34;;;9.37;57.44
78483;BME280;67772;50.158;8.658;2023-04-02T14:45:32;100954.63;;;9.38;58.03
78483;BME280;67772;50.158;8.658;2023-04-02T14:48:26;100954.75;;;9.43;57.87
78483;BME280;67772;50.158;8.658;2023-04-02T14:51:13;100969.25;;;9.29;58.64
78483;BME280;67772;50.158;8.658;2023-04-02T14:56:14;100970.84;;;9.12;58.67
78483;BME280;67772;50.158;8.658;2023-04-02T14:58:43;100984.66;;;9.02;58.08
78483;BME280;67772;50.158;8.658;2023-04-02T15:01:18;100985.63;;;9.08;58.05
78483;BME280;67772;50.158;8.658;2023-04-02T15:03:47;100986.06;;;8.80;59.30
78483;BME280;67772;50.158;8.658;2023-04-02T15:06:23;100988.59;;;8.68;59.97
78483;BME280;67772;50.158;8.658;2023-04-02T15:09:01;101000.09;;;8.62;59.92
78483;BME280;67772;50.158;8.658;2023-04-02T15:11:34;101002.91;;;8.67;59.11
78483;BME280;67772;50.158;8.658;2023-04-02T15:14:09;101009.63;;;8.45;59.37
78483;BME280;67772;50.158;8.658;2023-04-02T15:16:35;101008.72;;;8.58;59.49
78483;BME280;67772;50.158;8.658;2023-04-02T15:19:03;101006.63;;;8.66;59.12
78483;BME280;67772;50.158;8.658;2023-04-02T15:24:18;101016.44;;;8.35;58.67
78483;BME280;67772;50.158;8.658;2023-04-02T15:29:59;101017.84;;;8.37;57.97
78483;BME280;67772;50.158;8.658;2023-04-02T15:32:34;101020.97;;;8.28;58.49
78483;BME280;67772;50.158;8.658;2023-04-02T15:41:06;101036.16;;;8.14;59.58
78483;BME280;67772;50.158;8.658;2023-04-02T15:49:41;101036.31;;;8.26;58.46
78483;BME280;67772;50.158;8.658;2023-04-02T15:55:01;101051.38;;;8.38;58.16
78483;BME280;67772;50.158;8.658;2023-04-02T16:00:26;101056.34;;;8.15;58.05
78483;BME280;67772;50.158;8.658;2023-04-02T16:08:55;101063.97;;;8.05;58.17
78483;BME280;67772;50.158;8.658;2023-04-02T16:11:25;101065.59;;;8.06;57.29
78483;BME280;67772;50.158;8.658;2023-04-02T16:13:57;101074.41;;;8.07;57.70
78483;BME280;67772;50.158;8.658;2023-04-02T16:16:29;101087.25;;;8.16;58.22
78483;BME280;67772;50.158;8.658;2023-04-02T16:21:37;101088.31;;;8.02;59.13
78483;BME280;67772;50.158;8.658;2023-04-02T16:24:11;101094.78;;;8.13;58.21
78483;BME280;67772;50.158;8.658;2023-04-02T16:26:48;101103.19;;;8.16;57.32
78483;BME280;67772;50.158;8.658;2023-04-02T16:32:35;101109.91;;;8.19;56.18
78483;BME280;67772;50.158;8.658;2023-04-02T16:35:15;101111.16;;;8.10;56.75
78483;BME280;67772;50.158;8.658;2023-04-02T16:37:45;101111.59;;;8.07;56.64
78483;BME280;67772;50.158;8.658;2023-04-02T16:58:46;101143.91;;;7.90;56.22
78483;BME280;67772;50.158;8.658;2023-04-02T17:01:24;101151.84;;;7.97;55.54
78483;BME280;67772;50.158;8.658;2023-04-02T17:04:21;101164.75;;;7.93;54.93